createdAt,value
2019-05-12T00:04:30.242Z,101727.72
2019-05-12T00:09:38.821Z,101725.20
2019-05-12T00:14:48.527Z,101728.24
2019-05-12T00:19:55.452Z,101727.70
2019-05-12T00:25:01.307Z,101737.41
2019-05-12T00:30:10.656Z,101742.69
2019-05-12T00:35:18.250Z,101749.63
2019-05-12T00:40:27.559Z,101749.63
2019-05-12T00:45:34.542Z,101754.88
2019-05-12T00:50:41.575Z,101748.50
2019-05-12T00:55:48.577Z,101758.46
2019-05-12T01:00:59.320Z,101757.05
2019-05-12T01:06:05.386Z,101757.05
2019-05-12T01:11:12.458Z,101773.44
2019-05-12T01:16:19.444Z,101788.43
2019-05-12T01:21:28.579Z,101788.43
2019-05-12T01:26:35.427Z,101790.36
2019-05-12T01:31:50.235Z,101801.19
2019-05-12T01:37:17.957Z,101810.63
2019-05-12T01:42:28.593Z,101827.84
2019-05-12T01:47:35.389Z,101827.84
2019-05-12T01:52:42.431Z,101836.41
2019-05-12T01:57:49.432Z,101836.96
2019-05-12T02:02:58.437Z,101846.66
2019-05-12T02:08:09.741Z,101852.73
2019-05-12T02:13:18.291Z,101866.91
2019-05-12T02:18:25.511Z,101869.34
2019-05-12T02:23:32.442Z,101876.27
2019-05-12T02:28:39.613Z,101876.27
2019-05-12T02:33:46.591Z,101880.72
2019-05-12T02:38:55.936Z,101892.91
2019-05-12T02:44:05.300Z,101891.77
2019-05-12T02:49:11.425Z,101891.77
2019-05-12T02:54:19.545Z,101902.62
2019-05-12T02:59:28.548Z,101911.73
2019-05-12T03:04:37.107Z,101911.73
2019-05-12T03:13:47.571Z,101923.53
2019-05-12T03:18:55.287Z,101934.45
2019-05-12T03:24:01.324Z,101934.45
2019-05-12T03:29:08.433Z,101930.27
2019-05-12T03:34:19.831Z,101939.95
2019-05-12T03:39:25.061Z,101944.66
2019-05-12T03:44:31.591Z,101953.55
2019-05-12T03:49:38.450Z,101969.63
2019-05-12T03:54:45.311Z,101969.63
2019-05-12T03:59:54.337Z,101975.47
2019-05-12T04:05:00.291Z,101979.09
2019-05-12T04:10:07.731Z,101985.18
2019-05-12T04:15:15.220Z,102003.79
2019-05-12T04:20:25.142Z,102003.79
2019-05-12T04:25:46.335Z,102029.45
2019-05-12T04:30:40.410Z,102029.45
2019-05-12T04:35:47.691Z,102042.02
2019-05-12T04:40:55.255Z,102056.53
2019-05-12T04:46:05.099Z,102063.52
2019-05-12T04:51:11.565Z,102063.52
2019-05-12T04:56:20.601Z,102082.99
2019-05-12T05:01:27.425Z,102089.70
2019-05-12T05:06:34.457Z,102095.31
2019-05-12T05:11:41.470Z,102101.16
2019-05-12T05:16:48.469Z,102119.75
2019-05-12T05:21:55.720Z,102127.29
2019-05-12T05:27:04.425Z,102127.29
2019-05-12T05:32:13.928Z,102152.74
2019-05-12T05:37:19.288Z,102152.74
2019-05-12T05:42:30.697Z,102169.30
2019-05-12T05:47:34.311Z,102165.87
2019-05-12T05:52:43.282Z,102183.67
2019-05-12T05:57:50.425Z,102195.72
2019-05-12T06:02:57.440Z,102201.62
2019-05-12T06:08:04.169Z,102211.62
2019-05-12T06:13:11.460Z,102221.13
2019-05-12T06:18:18.456Z,102231.78
2019-05-12T06:23:29.060Z,102247.86
2019-05-12T06:28:39.425Z,102250.17
2019-05-12T06:33:44.742Z,102251.61
2019-05-12T06:38:54.102Z,102255.27
2019-05-12T06:43:59.950Z,102262.33
2019-05-12T06:49:12.772Z,102269.26
2019-05-12T06:54:15.943Z,102281.16
2019-05-12T06:59:24.056Z,102279.63
2019-05-12T07:04:30.043Z,102284.17
2019-05-12T07:09:50.091Z,102282.67
2019-05-12T07:14:48.876Z,102279.48
2019-05-12T07:19:57.127Z,102279.70
2019-05-12T07:25:04.519Z,102288.47
2019-05-12T07:30:13.702Z,102297.23
2019-05-12T07:35:20.842Z,102305.66
2019-05-12T07:40:30.566Z,102314.63
2019-05-12T07:45:39.378Z,102319.53
2019-05-12T07:50:50.301Z,102319.53
2019-05-12T07:55:53.680Z,102319.93
2019-05-12T08:01:02.758Z,102319.73
2019-05-12T08:06:09.758Z,102319.73
2019-05-12T08:11:16.570Z,102325.31
2019-05-12T08:16:25.559Z,102328.07
2019-05-12T08:21:34.859Z,102328.07
2019-05-12T08:26:43.444Z,102333.41
2019-05-12T08:31:54.823Z,102337.04
2019-05-12T08:37:01.416Z,102336.66
2019-05-12T08:42:08.661Z,102343.72
2019-05-12T08:47:15.590Z,102359.69
2019-05-12T08:52:23.560Z,102367.62
2019-05-12T08:57:34.848Z,102365.91
2019-05-12T09:02:46.098Z,102365.91
2019-05-12T09:07:54.062Z,102361.82
2019-05-12T09:13:03.685Z,102363.02
2019-05-12T09:18:09.272Z,102372.36
2019-05-12T09:28:06.584Z,102376.36
2019-05-12T09:33:14.096Z,102373.99
2019-05-12T09:38:23.219Z,102383.81
2019-05-12T09:43:29.283Z,102381.84
2019-05-12T09:48:39.065Z,102390.22
2019-05-12T09:53:50.956Z,102381.65
2019-05-12T09:59:01.323Z,102383.91
2019-05-12T10:04:03.512Z,102385.11
2019-05-12T10:09:19.604Z,102383.83
2019-05-12T10:14:24.576Z,102389.13
2019-05-12T10:19:33.901Z,102386.05
2019-05-12T10:24:52.131Z,102386.05
2019-05-12T10:29:50.863Z,102384.88
2019-05-12T10:34:57.763Z,102384.73
2019-05-12T10:40:04.973Z,102388.77
2019-05-12T10:45:16.994Z,102394.20
2019-05-12T10:50:23.447Z,102393.50
2019-05-12T10:55:29.285Z,102397.11
2019-05-12T11:00:38.521Z,102398.70
2019-05-12T11:05:45.511Z,102410.08
2019-05-12T11:10:59.227Z,102415.22
2019-05-12T11:16:03.643Z,102405.03
2019-05-12T11:21:09.276Z,102412.02
2019-05-12T11:26:16.593Z,102423.81
2019-05-12T11:31:24.310Z,102425.95
2019-05-12T11:36:30.739Z,102427.14
2019-05-12T11:41:36.483Z,102430.75
2019-05-12T11:46:44.270Z,102438.82
2019-05-12T11:51:50.321Z,102437.27
2019-05-12T11:56:58.276Z,102445.52
2019-05-12T12:02:04.521Z,102445.45
2019-05-12T12:07:11.459Z,102450.94
2019-05-12T12:12:17.352Z,102447.98
2019-05-12T12:17:31.137Z,102456.22
2019-05-12T12:26:30.353Z,102462.26
2019-05-12T12:32:02.589Z,102462.26
2019-05-12T12:37:09.583Z,102465.12
2019-05-12T12:42:16.475Z,102457.13
2019-05-12T12:47:23.795Z,102464.61
2019-05-12T12:52:31.067Z,102478.64
2019-05-12T12:57:40.224Z,102479.45
2019-05-12T13:02:49.190Z,102477.39
2019-05-12T13:07:53.634Z,102480.75
2019-05-12T13:13:03.462Z,102483.64
2019-05-12T13:18:17.960Z,102483.64
2019-05-12T13:28:12.319Z,102493.69
2019-05-12T13:33:18.218Z,102496.17
2019-05-12T13:38:23.793Z,102497.40
2019-05-12T13:43:34.019Z,102506.55
2019-05-12T13:48:43.341Z,102504.58
2019-05-12T13:53:50.473Z,102511.80
2019-05-12T13:58:59.411Z,102531.48
2019-05-12T14:04:05.287Z,102528.69
2019-05-12T14:09:13.520Z,102523.05
2019-05-12T14:14:18.834Z,102535.53
2019-05-12T14:19:24.502Z,102543.00
2019-05-12T14:24:33.140Z,102544.03
2019-05-12T14:29:40.424Z,102553.02
2019-05-12T14:34:51.059Z,102554.31
2019-05-12T14:39:56.415Z,102563.17
2019-05-12T14:45:04.692Z,102558.67
2019-05-12T14:50:14.047Z,102563.67
2019-05-12T14:55:21.015Z,102561.67
2019-05-12T15:00:29.521Z,102561.97
2019-05-12T15:05:41.206Z,102573.47
2019-05-12T15:10:45.286Z,102577.70
2019-05-12T15:15:57.965Z,102575.69
2019-05-12T15:21:03.439Z,102589.45
2019-05-12T15:26:15.773Z,102592.81
2019-05-12T15:31:19.257Z,102591.06
2019-05-12T15:42:15.566Z,102595.17
2019-05-12T15:47:26.736Z,102598.03
2019-05-12T15:52:35.192Z,102602.00
2019-05-12T15:57:38.576Z,102607.27
2019-05-12T16:02:44.572Z,102618.56
2019-05-12T16:07:51.504Z,102636.06
2019-05-12T16:12:58.479Z,102636.06
2019-05-12T16:18:05.647Z,102640.56
2019-05-12T16:23:17.135Z,102635.36
2019-05-12T16:28:23.686Z,102646.95
2019-05-12T16:33:29.413Z,102649.88
2019-05-12T16:38:36.496Z,102654.03
2019-05-12T16:43:45.597Z,102657.36
2019-05-12T16:48:56.642Z,102671.17
2019-05-12T16:54:03.659Z,102671.17
2019-05-12T16:59:16.799Z,102685.22
2019-05-12T17:04:19.584Z,102685.22
2019-05-12T17:09:26.498Z,102695.09
2019-05-12T17:14:36.628Z,102695.09
2019-05-12T17:19:43.419Z,102706.52
2019-05-12T17:24:50.595Z,102718.45
2019-05-12T17:29:57.565Z,102729.31
2019-05-12T17:35:04.583Z,102729.31
2019-05-12T17:40:18.330Z,102735.25
2019-05-12T17:45:23.636Z,102745.23
2019-05-12T17:50:30.623Z,102753.28
2019-05-12T17:55:42.731Z,102756.32
2019-05-12T18:00:47.569Z,102756.32
2019-05-12T18:05:54.457Z,102772.27
2019-05-12T18:11:00.295Z,102772.27
2019-05-12T18:16:11.536Z,102776.43
2019-05-12T18:21:21.689Z,102782.58
2019-05-12T18:26:25.402Z,102795.98
2019-05-12T18:31:33.436Z,102797.05
2019-05-12T18:36:41.623Z,102812.36
2019-05-12T18:41:47.506Z,102815.23
2019-05-12T18:46:54.454Z,102815.23
2019-05-12T18:52:00.292Z,102840.58
2019-05-12T18:57:10.463Z,102842.73
2019-05-12T19:02:23.491Z,102848.77
2019-05-12T19:07:39.333Z,102859.59
2019-05-12T19:12:35.769Z,102869.52
2019-05-12T19:17:43.583Z,102871.89
2019-05-12T19:22:57.328Z,102885.70
2019-05-12T19:44:59.360Z,102915.30
2019-05-12T19:50:09.599Z,102942.63
2019-05-12T19:55:14.218Z,102942.63
2019-05-12T20:00:21.632Z,102945.87
2019-05-12T20:05:29.757Z,102945.06
2019-05-12T20:10:44.870Z,102945.06
2019-05-12T20:15:44.327Z,102959.25
2019-05-12T20:20:51.439Z,102965.19
2019-05-12T20:25:58.279Z,102965.19
2019-05-12T20:31:06.212Z,102985.95
2019-05-12T20:36:14.227Z,102985.95
2019-05-12T20:41:26.137Z,102986.94
2019-05-12T20:46:29.303Z,102996.02
2019-05-12T20:51:36.649Z,102994.16
2019-05-12T20:56:43.585Z,102999.10
2019-05-12T21:01:49.327Z,102999.10
2019-05-12T21:11:24.547Z,102999.32
2019-05-12T21:16:34.357Z,102997.12
2019-05-12T21:21:39.088Z,103004.03
2019-05-12T21:26:46.484Z,103007.23
2019-05-12T21:31:53.185Z,103007.23
2019-05-12T21:37:04.619Z,103019.27
2019-05-12T21:47:07.819Z,103018.99
2019-05-12T21:52:10.483Z,103028.62
2019-05-12T21:57:19.115Z,103035.11
2019-05-12T22:02:30.632Z,103036.61
2019-05-12T22:07:35.571Z,103035.25
2019-05-12T22:12:44.114Z,103049.51
2019-05-12T22:18:00.607Z,103048.57
2019-05-12T22:23:11.761Z,103054.11
2019-05-12T22:28:17.130Z,103060.13
2019-05-12T22:33:24.460Z,103060.16
2019-05-12T22:38:33.820Z,103061.91
2019-05-12T22:43:43.492Z,103070.05
2019-05-12T22:48:49.634Z,103071.16
2019-05-12T22:54:00.535Z,103063.41
2019-05-12T22:59:05.617Z,103063.41
2019-05-12T23:04:14.245Z,103065.98
2019-05-12T23:09:28.013Z,103065.98
2019-05-12T23:14:30.587Z,103072.39
2019-05-12T23:19:42.988Z,103074.67
2019-05-12T23:24:46.484Z,103074.67
2019-05-12T23:29:53.513Z,103085.16
2019-05-12T23:35:00.479Z,103078.97
2019-05-12T23:40:11.362Z,103080.37
2019-05-12T23:45:16.613Z,103085.64
2019-05-12T23:50:24.117Z,103094.47
2019-05-12T23:55:30.339Z,103094.47
